Terminal Aerodrome Forecast
Issued by NWS

Home | Current Version | Previous Version | Text Only | Print | Product List | Glossary On
Versions: 1 2 3 4 5 6 7 8 9 10 11 12 13 14 15
000
FTUS43 KBIS 250520
TAFJMS
TAF
KJMS 250520Z 2506/2606 VRB05KT P6SM SKC
     FM251400 23017G23KT P6SM FEW250
     FM260100 21012KT P6SM FEW250
     FM260500 35015KT P6SM BKN080 WS012/27020KT=

USA.gov is the U.S. government's official web portal to all federal, state and local government web resources and services.